Time;durP1;ratioP1;P1;durP2;ratioP2;P2;SDS_P1;SDS_P2;PMS_P1;PMS_P2;Temp;Humidity;BMP_temperature;BMP_pressure;BME280_temperature;BME280_humidity;BME280_pressure;Samples;Min_cycle;Max_cycle;Signal;HPM_P1;HPM_P2
2023/07/16 00:00:36;;;;;;;8.60;3.10;;;17.90;99.90;;;;;;5093024;28;20101;-65
2023/07/16 00:03:02;;;;;;;7.63;3.25;;;17.90;99.90;;;;;;5093235;28;20055;-66
2023/07/16 00:05:29;;;;;;;9.93;2.85;;;17.90;99.90;;;;;;5092148;28;20377;-65
2023/07/16 00:07:55;;;;;;;8.15;3.20;;;17.90;99.90;;;;;;5074349;28;20048;-65
2023/07/16 00:10:21;;;;;;;7.80;2.88;;;17.90;99.90;;;;;;5092937;28;20371;-65
2023/07/16 00:12:47;;;;;;;9.68;3.38;;;17.90;99.90;;;;;;5092528;28;20380;-65
2023/07/16 00:15:14;;;;;;;7.65;3.10;;;17.90;99.90;;;;;;5092636;28;20483;-65
2023/07/16 00:17:40;;;;;;;7.50;2.83;;;17.90;99.90;;;;;;5091920;28;20032;-66
2023/07/16 00:20:07;;;;;;;7.85;3.03;;;17.80;99.90;;;;;;5092342;28;20405;-65
2023/07/16 00:22:33;;;;;;;7.50;2.72;;;17.80;99.90;;;;;;5092842;28;20044;-65
2023/07/16 00:24:59;;;;;;;8.50;3.08;;;17.80;99.90;;;;;;5093006;28;20112;-66
2023/07/16 00:27:26;;;;;;;11.48;2.70;;;17.80;99.90;;;;;;5091996;28;20601;-65
2023/07/16 00:29:52;;;;;;;7.70;2.38;;;17.70;99.90;;;;;;5092847;28;20060;-65
2023/07/16 00:32:18;;;;;;;6.90;2.80;;;17.70;99.90;;;;;;5092581;28;20106;-65
2023/07/16 00:34:45;;;;;;;7.30;2.88;;;17.60;99.90;;;;;;5092001;28;20456;-65
2023/07/16 00:37:11;;;;;;;9.57;2.92;;;17.60;99.90;;;;;;5091450;28;20044;-65
2023/07/16 00:39:38;;;;;;;6.72;2.90;;;17.50;99.90;;;;;;5092452;28;20131;-66
2023/07/16 00:42:04;;;;;;;8.02;2.72;;;17.50;99.90;;;;;;5092598;28;20059;-66
2023/07/16 00:44:30;;;;;;;10.13;2.97;;;17.40;99.90;;;;;;5092266;28;20468;-66
2023/07/16 00:46:57;;;;;;;5.70;3.00;;;17.40;99.90;;;;;;5091739;28;20044;-66
2023/07/16 00:49:24;;;;;;;6.00;3.08;;;17.40;99.90;;;;;;5091706;28;20484;-65
2023/07/16 00:51:51;;;;;;;7.93;2.60;;;17.40;99.90;;;;;;5092219;28;20138;-66
2023/07/16 00:54:19;;;;;;;8.57;2.83;;;17.40;99.90;;;;;;5092415;28;20052;-65
2023/07/16 00:56:45;;;;;;;8.55;2.70;;;17.40;99.90;;;;;;5091804;28;20044;-65
2023/07/16 00:59:11;;;;;;;8.02;3.15;;;17.40;99.90;;;;;;5092222;28;20052;-65
2023/07/16 01:01:39;;;;;;;10.32;2.90;;;17.30;99.90;;;;;;5092253;28;20059;-65
2023/07/16 01:04:05;;;;;;;9.15;3.00;;;17.40;99.90;;;;;;5094142;28;20048;-65
2023/07/16 01:06:44;;;;;;;7.00;3.38;;;17.30;99.90;;;;;;5098341;28;20059;-65
2023/07/16 01:09:16;;;;;;;10.15;3.50;;;17.30;99.90;;;;;;5098128;28;20391;-65
2023/07/16 01:11:44;;;;;;;8.98;3.30;;;17.30;99.90;;;;;;5098983;28;20048;-65
2023/07/16 01:14:12;;;;;;;7.50;3.00;;;17.30;99.90;;;;;;5098762;28;20059;-65
2023/07/16 01:16:38;;;;;;;7.45;3.10;;;17.30;99.90;;;;;;5098561;28;20052;-65
2023/07/16 01:19:05;;;;;;;7.05;3.00;;;17.40;99.90;;;;;;5098335;28;20460;-65
2023/07/16 01:21:43;;;;;;;6.78;3.35;;;17.40;99.90;;;;;;5098777;28;20341;-65
2023/07/16 01:24:26;;;;;;;6.80;3.20;;;17.40;99.90;;;;;;5098697;28;20291;-66
2023/07/16 01:26:55;;;;;;;8.23;3.35;;;17.50;99.90;;;;;;5098203;28;20048;-64
2023/07/16 01:29:29;;;;;;;11.20;3.40;;;17.50;99.90;;;;;;5098357;28;20048;-64
2023/07/16 01:31:58;;;;;;;8.77;3.30;;;17.50;99.90;;;;;;5098874;28;20047;-64
2023/07/16 01:34:26;;;;;;;9.90;3.60;;;17.50;99.90;;;;;;5098590;28;20052;-65
2023/07/16 01:36:52;;;;;;;9.32;3.42;;;17.50;99.90;;;;;;5097430;28;20067;-65
2023/07/16 01:39:19;;;;;;;5.28;2.97;;;17.60;99.90;;;;;;5098266;28;20044;-66
2023/07/16 01:41:45;;;;;;;10.75;3.70;;;17.60;99.90;;;;;;5098466;28;20113;-65
2023/07/16 01:44:12;;;;;;;7.38;3.13;;;17.60;99.90;;;;;;5098444;28;20052;-65
2023/07/16 01:46:38;;;;;;;8.52;3.42;;;17.60;99.90;;;;;;5098086;28;20097;-66
2023/07/16 01:49:04;;;;;;;9.48;3.70;;;17.60;99.90;;;;;;5098444;28;20105;-65
2023/07/16 01:51:31;;;;;;;6.93;3.72;;;17.70;99.90;;;;;;5098206;28;20051;-65
2023/07/16 01:53:57;;;;;;;7.25;3.72;;;17.70;99.90;;;;;;5098507;28;20047;-65
2023/07/16 01:56:23;;;;;;;10.07;3.55;;;17.70;99.90;;;;;;5097760;28;20062;-65
2023/07/16 01:58:50;;;;;;;9.43;3.50;;;17.60;99.90;;;;;;5097782;28;20468;-66
2023/07/16 02:01:16;;;;;;;10.30;3.30;;;17.70;99.90;;;;;;5098165;28;20437;-66
2023/07/16 02:03:42;;;;;;;6.30;3.30;;;17.60;99.90;;;;;;5098434;28;20058;-66
2023/07/16 02:06:08;;;;;;;7.65;3.30;;;17.50;99.90;;;;;;5097630;28;20109;-65
2023/07/16 02:08:35;;;;;;;9.07;4.45;;;17.60;99.90;;;;;;5080105;28;20135;-66
2023/07/16 02:11:01;;;;;;;8.45;3.92;;;17.60;99.90;;;;;;5098385;28;20079;-65
2023/07/16 02:13:27;;;;;;;5.82;3.33;;;17.50;99.90;;;;;;5098134;28;20052;-65
2023/07/16 02:15:53;;;;;;;7.38;3.60;;;17.50;99.90;;;;;;5096488;28;20117;-64
2023/07/16 02:18:20;;;;;;;7.47;3.22;;;17.40;99.90;;;;;;5094848;28;20062;-66
2023/07/16 02:20:46;;;;;;;8.45;3.45;;;17.40;99.90;;;;;;5095043;28;20105;-65
2023/07/16 02:23:12;;;;;;;6.80;3.58;;;17.40;99.90;;;;;;5094875;28;20047;-65
2023/07/16 02:25:38;;;;;;;9.13;3.65;;;17.40;99.90;;;;;;5094343;28;20101;-65
2023/07/16 02:28:05;;;;;;;7.47;3.50;;;17.30;99.90;;;;;;5094544;28;20051;-65
2023/07/16 02:30:31;;;;;;;8.57;3.53;;;17.30;99.90;;;;;;5094803;28;20101;-65
2023/07/16 02:32:57;;;;;;;6.90;3.97;;;17.30;99.90;;;;;;5094841;28;20116;-65
2023/07/16 02:35:23;;;;;;;10.50;3.97;;;17.30;99.90;;;;;;5094019;28;20044;-65
2023/07/16 02:37:50;;;;;;;9.25;3.95;;;17.30;99.90;;;;;;5094545;28;20047;-65
2023/07/16 02:40:16;;;;;;;7.22;4.15;;;17.30;99.90;;;;;;5094626;28;20119;-65
2023/07/16 02:42:42;;;;;;;11.77;4.22;;;17.30;99.90;;;;;;5094654;28;20047;-64
2023/07/16 02:45:08;;;;;;;7.85;3.90;;;17.30;99.90;;;;;;5093835;28;20430;-64
2023/07/16 02:47:35;;;;;;;8.60;3.97;;;17.30;99.90;;;;;;5094095;28;20060;-65
2023/07/16 02:50:01;;;;;;;6.57;4.10;;;17.30;99.90;;;;;;5094354;28;20063;-66
2023/07/16 02:52:27;;;;;;;9.23;4.22;;;17.30;99.90;;;;;;5093860;28;20371;-65
2023/07/16 02:54:54;;;;;;;10.00;4.13;;;17.30;99.90;;;;;;5093934;28;20379;-65
2023/07/16 02:57:21;;;;;;;7.78;4.10;;;17.30;99.90;;;;;;5093438;28;20363;-65
2023/07/16 02:59:48;;;;;;;10.57;4.10;;;17.20;99.90;;;;;;5094328;28;20048;-65
2023/07/16 03:02:14;;;;;;;12.68;4.18;;;17.20;99.90;;;;;;5093771;28;20059;-64
2023/07/16 03:04:41;;;;;;;9.20;3.42;;;17.20;99.90;;;;;;5094077;28;20349;-65
2023/07/16 03:07:07;;;;;;;9.57;4.38;;;17.20;99.90;;;;;;5093737;28;20112;-65
2023/07/16 03:09:34;;;;;;;8.15;4.40;;;17.10;99.90;;;;;;5093960;28;20117;-66
2023/07/16 03:12:00;;;;;;;9.88;4.30;;;17.10;99.90;;;;;;5093742;28;20480;-65
2023/07/16 03:14:26;;;;;;;7.88;4.30;;;17.10;99.90;;;;;;5075770;28;20056;-66
2023/07/16 03:16:52;;;;;;;10.48;4.03;;;17.00;99.90;;;;;;5093112;28;20390;-65
2023/07/16 03:19:18;;;;;;;9.13;4.63;;;17.00;99.90;;;;;;5093428;28;20044;-65
2023/07/16 03:21:45;;;;;;;8.50;4.55;;;17.00;99.90;;;;;;5093404;28;20081;-65
2023/07/16 03:24:14;;;;;;;7.30;4.13;;;17.00;99.90;;;;;;5059176;28;20051;-65
2023/07/16 03:26:40;;;;;;;8.93;4.50;;;17.00;99.90;;;;;;5075025;28;20056;-65
2023/07/16 03:29:07;;;;;;;6.80;4.43;;;17.00;99.90;;;;;;5093116;28;20040;-65
2023/07/16 03:31:33;;;;;;;7.40;4.15;;;17.00;99.90;;;;;;5093604;28;20048;-65
2023/07/16 03:33:59;;;;;;;9.13;4.93;;;17.00;99.90;;;;;;5093668;28;20048;-65
2023/07/16 03:36:25;;;;;;;8.88;4.03;;;17.00;99.90;;;;;;5092547;28;20052;-66
2023/07/16 03:38:51;;;;;;;11.85;4.55;;;16.90;99.90;;;;;;5092568;28;20388;-65
2023/07/16 03:41:18;;;;;;;9.55;4.53;;;16.90;99.90;;;;;;5093183;28;20048;-65
2023/07/16 03:43:44;;;;;;;8.85;4.32;;;16.90;99.90;;;;;;5093441;28;20110;-65
2023/07/16 03:46:10;;;;;;;7.80;4.00;;;16.90;99.90;;;;;;5092761;28;20420;-65
2023/07/16 03:48:36;;;;;;;8.80;4.32;;;16.90;99.90;;;;;;5092564;28;20113;-65
2023/07/16 03:51:03;;;;;;;8.52;4.32;;;16.90;99.90;;;;;;5092968;28;20054;-65
2023/07/16 03:53:29;;;;;;;10.02;4.40;;;16.90;99.90;;;;;;5093110;28;20052;-66
2023/07/16 03:55:55;;;;;;;10.45;4.95;;;16.90;99.90;;;;;;5092618;28;20071;-65
2023/07/16 03:58:22;;;;;;;11.02;4.55;;;16.90;99.90;;;;;;5092592;28;20052;-66
2023/07/16 04:00:49;;;;;;;9.90;4.28;;;16.90;99.90;;;;;;5092997;28;20055;-65
2023/07/16 04:03:15;;;;;;;8.95;4.50;;;16.90;99.90;;;;;;5092908;28;20048;-65
2023/07/16 04:05:41;;;;;;;10.43;4.70;;;16.90;99.90;;;;;;5092318;28;20048;-65
2023/07/16 04:08:08;;;;;;;10.77;4.47;;;16.90;99.90;;;;;;5092421;28;20117;-64
2023/07/16 04:10:34;;;;;;;13.93;4.95;;;16.90;99.90;;;;;;5092643;28;20109;-65
2023/07/16 04:13:01;;;;;;;9.82;4.97;;;16.90;99.90;;;;;;5092915;28;20116;-65
2023/07/16 04:15:27;;;;;;;7.93;4.50;;;17.00;99.90;;;;;;5092124;28;20128;-65
2023/07/16 04:17:53;;;;;;;9.98;4.22;;;17.00;99.90;;;;;;5092215;28;20101;-65
2023/07/16 04:20:19;;;;;;;9.07;4.03;;;17.00;99.90;;;;;;5092494;28;20040;-65
2023/07/16 04:22:46;;;;;;;9.60;4.38;;;17.00;99.90;;;;;;5092492;28;20040;-66
2023/07/16 04:25:13;;;;;;;11.27;4.50;;;17.00;99.90;;;;;;5092061;28;20055;-66
2023/07/16 04:27:41;;;;;;;8.50;4.65;;;17.00;99.90;;;;;;5092029;28;20052;-65
2023/07/16 04:30:07;;;;;;;12.00;4.68;;;16.90;99.90;;;;;;5092081;28;20459;-65
2023/07/16 04:32:34;;;;;;;9.57;4.82;;;17.00;99.90;;;;;;5092406;28;20074;-65
2023/07/16 04:35:00;;;;;;;10.57;4.55;;;17.00;99.90;;;;;;5092011;28;20415;-65
2023/07/16 04:37:26;;;;;;;7.70;4.88;;;17.00;99.90;;;;;;5072390;28;20044;-66
2023/07/16 04:39:53;;;;;;;8.63;4.05;;;17.00;99.90;;;;;;5071206;28;20040;-65
2023/07/16 04:42:20;;;;;;;7.97;4.78;;;17.10;99.90;;;;;;5072029;28;20186;-65
2023/07/16 04:44:47;;;;;;;9.65;4.18;;;17.10;99.90;;;;;;5072589;28;20052;-64
2023/07/16 04:47:13;;;;;;;8.80;4.00;;;17.10;99.90;;;;;;5071281;28;20362;-65
2023/07/16 04:49:39;;;;;;;13.10;4.70;;;17.20;99.90;;;;;;5071560;28;20056;-66
2023/07/16 04:52:06;;;;;;;9.27;4.03;;;17.20;99.90;;;;;;5072658;28;20044;-65
2023/07/16 04:54:37;;;;;;;11.93;3.85;;;17.20;99.90;;;;;;5071994;28;20064;-65
2023/07/16 04:57:05;;;;;;;7.80;4.20;;;17.20;99.90;;;;;;5071433;28;20067;-65
2023/07/16 04:59:31;;;;;;;11.48;4.05;;;17.30;99.90;;;;;;5071520;28;20464;-65
2023/07/16 05:01:57;;;;;;;11.55;4.35;;;17.40;99.90;;;;;;5071712;28;20144;-65
2023/07/16 05:04:24;;;;;;;11.25;4.50;;;17.90;99.90;;;;;;5071746;28;20053;-65
2023/07/16 05:06:52;;;;;;;6.30;4.03;;;18.60;99.90;;;;;;5071326;28;20048;-66
2023/07/16 05:09:19;;;;;;;9.20;3.85;;;19.30;99.90;;;;;;5071362;28;20106;-65
2023/07/16 05:11:45;;;;;;;7.88;3.85;;;19.90;99.90;;;;;;5071756;28;20064;-66
2023/07/16 05:14:12;;;;;;;8.55;3.58;;;20.30;99.90;;;;;;5071892;28;20056;-66
2023/07/16 05:16:38;;;;;;;7.22;4.05;;;20.70;99.90;;;;;;5071550;28;20048;-65
2023/07/16 05:19:04;;;;;;;7.00;3.88;;;20.70;99.90;;;;;;5071446;28;20092;-65
2023/07/16 05:21:30;;;;;;;8.93;4.07;;;21.10;99.90;;;;;;5072066;28;20360;-66
2023/07/16 05:23:57;;;;;;;9.55;4.20;;;21.30;99.90;;;;;;5072012;28;20053;-66
2023/07/16 05:26:23;;;;;;;9.77;4.25;;;21.60;99.90;;;;;;5070967;28;20530;-66
2023/07/16 05:28:49;;;;;;;7.60;3.92;;;21.90;99.90;;;;;;5070882;28;20381;-66
2023/07/16 05:31:15;;;;;;;8.43;4.20;;;21.90;99.90;;;;;;5071420;28;20059;-66
2023/07/16 05:33:41;;;;;;;7.63;4.00;;;22.00;99.90;;;;;;5071171;28;20491;-66
2023/07/16 05:36:08;;;;;;;7.28;4.30;;;22.20;99.90;;;;;;5078865;28;20358;-65
2023/07/16 05:38:34;;;;;;;10.90;4.35;;;22.30;99.90;;;;;;5091210;28;20052;-66
2023/07/16 05:41:04;;;;;;;11.95;4.75;;;22.40;99.90;;;;;;5091782;28;20525;-66
2023/07/16 05:43:31;;;;;;;9.40;4.50;;;22.60;99.90;;;;;;5091437;28;20041;-65
2023/07/16 05:45:58;;;;;;;9.38;4.07;;;22.60;99.90;;;;;;5091242;28;20044;-66
2023/07/16 05:48:24;;;;;;;10.18;4.40;;;22.50;99.90;;;;;;5091310;28;20067;-66
2023/07/16 05:50:51;;;;;;;9.07;4.47;;;22.90;99.90;;;;;;5093211;28;20052;-66
2023/07/16 05:53:17;;;;;;;6.35;3.83;;;22.80;99.90;;;;;;5095518;28;20048;-66
2023/07/16 05:55:43;;;;;;;7.68;4.15;;;23.00;99.90;;;;;;5094827;28;20052;-66
2023/07/16 05:58:11;;;;;;;9.52;3.92;;;23.10;99.90;;;;;;5094570;28;20442;-66
2023/07/16 06:00:37;;;;;;;8.38;4.90;;;23.10;99.90;;;;;;5077235;28;20090;-65
2023/07/16 06:03:03;;;;;;;9.25;4.20;;;23.10;99.90;;;;;;5095335;28;20036;-66
2023/07/16 06:05:33;;;;;;;9.05;4.70;;;23.00;99.90;;;;;;5094712;28;20109;-65
2023/07/16 06:08:03;;;;;;;8.13;4.28;;;23.20;99.90;;;;;;5095035;28;20097;-66
2023/07/16 06:10:29;;;;;;;10.40;4.65;;;23.30;99.40;;;;;;5095243;28;20052;-66
2023/07/16 06:12:55;;;;;;;9.43;4.97;;;23.80;99.60;;;;;;5095116;28;20396;-66
2023/07/16 06:15:22;;;;;;;9.70;4.28;;;23.80;99.40;;;;;;5095473;28;20044;-65
2023/07/16 06:17:48;;;;;;;8.15;4.45;;;23.60;98.90;;;;;;5094733;28;20052;-65
2023/07/16 06:20:14;;;;;;;9.40;5.20;;;23.80;99.30;;;;;;5094656;28;20067;-65
2023/07/16 06:22:40;;;;;;;8.60;4.25;;;24.20;99.10;;;;;;5094985;28;20044;-65
2023/07/16 06:25:07;;;;;;;7.80;4.43;;;24.10;98.80;;;;;;5094245;28;20048;-65
2023/07/16 06:27:33;;;;;;;11.73;4.95;;;23.90;99.00;;;;;;5094458;28;20078;-66
2023/07/16 06:30:00;;;;;;;6.95;4.55;;;24.00;98.90;;;;;;5094710;28;20052;-66
2023/07/16 06:32:26;;;;;;;8.32;5.22;;;23.90;98.70;;;;;;5081929;28;20440;-66
2023/07/16 06:34:52;;;;;;;8.98;5.07;;;23.70;98.90;;;;;;5084372;28;20055;-65
2023/07/16 06:37:18;;;;;;;10.93;4.95;;;23.10;99.20;;;;;;5082568;28;20113;-65
2023/07/16 06:39:44;;;;;;;10.15;5.22;;;22.90;99.20;;;;;;5065528;28;20468;-66
2023/07/16 06:42:11;;;;;;;9.55;5.05;;;22.70;98.90;;;;;;5072999;28;20049;-66
2023/07/16 06:44:37;;;;;;;10.65;4.57;;;23.30;99.10;;;;;;5072279;28;20090;-65
2023/07/16 06:47:03;;;;;;;10.10;5.07;;;23.40;98.90;;;;;;5072614;28;20449;-65
2023/07/16 06:49:31;;;;;;;9.38;4.93;;;23.40;98.90;;;;;;5085653;28;20183;-65
2023/07/16 06:51:57;;;;;;;9.88;4.68;;;23.40;98.60;;;;;;5090034;28;20460;-65
2023/07/16 06:54:23;;;;;;;7.63;4.75;;;23.90;98.20;;;;;;5094206;28;20134;-65
2023/07/16 06:56:49;;;;;;;7.22;5.00;;;23.80;98.20;;;;;;5085892;28;20048;-65
2023/07/16 06:59:16;;;;;;;12.10;5.35;;;24.30;97.80;;;;;;5084360;28;20048;-65
2023/07/16 07:01:42;;;;;;;8.02;5.43;;;24.80;97.60;;;;;;5073882;28;20484;-65
2023/07/16 07:04:08;;;;;;;8.07;4.63;;;24.20;97.50;;;;;;5082847;28;20475;-65
2023/07/16 07:06:34;;;;;;;7.47;4.95;;;23.80;98.00;;;;;;5083374;28;20349;-65
2023/07/16 07:09:01;;;;;;;8.38;4.95;;;23.10;98.30;;;;;;5081549;28;20521;-65
2023/07/16 07:11:27;;;;;;;7.00;5.20;;;22.80;98.50;;;;;;5078614;28;20350;-65
2023/07/16 07:13:53;;;;;;;9.07;4.82;;;22.50;98.90;;;;;;5073346;28;20117;-65
2023/07/16 07:16:20;;;;;;;10.65;4.80;;;22.20;99.10;;;;;;5073570;28;20048;-64
2023/07/16 07:18:46;;;;;;;8.45;4.72;;;22.30;99.30;;;;;;5082054;28;20047;-64
2023/07/16 07:21:12;;;;;;;7.78;4.78;;;22.10;99.50;;;;;;5088192;28;20044;-64
2023/07/16 07:23:39;;;;;;;11.02;4.85;;;22.20;99.50;;;;;;5092627;28;20384;-65
2023/07/16 07:26:06;;;;;;;9.75;5.25;;;22.10;99.60;;;;;;5093335;28;20422;-65
2023/07/16 07:28:32;;;;;;;8.15;4.78;;;22.00;99.60;;;;;;5093567;28;20070;-65
2023/07/16 07:30:59;;;;;;;8.52;4.88;;;22.00;99.60;;;;;;5093942;28;20048;-65
2023/07/16 07:33:25;;;;;;;7.38;4.60;;;22.10;99.70;;;;;;5093957;28;20059;-65
2023/07/16 07:35:57;;;;;;;8.15;5.25;;;21.80;99.70;;;;;;5092662;28;20059;-65
2023/07/16 07:38:24;;;;;;;12.20;4.53;;;21.90;99.70;;;;;;5092714;28;20697;-65
2023/07/16 07:40:50;;;;;;;10.93;5.10;;;21.90;99.80;;;;;;5080187;28;20334;-65
2023/07/16 07:43:16;;;;;;;11.40;4.63;;;22.00;99.80;;;;;;5080410;28;20361;-66
2023/07/16 07:45:43;;;;;;;6.80;4.28;;;22.10;99.80;;;;;;5076650;28;20047;-66
2023/07/16 07:48:09;;;;;;;9.90;4.95;;;22.20;99.60;;;;;;5092632;28;20044;-66
2023/07/16 07:50:38;;;;;;;9.23;4.40;;;22.20;99.70;;;;;;5092595;28;20371;-65
2023/07/16 07:53:06;;;;;;;8.68;4.72;;;22.60;99.70;;;;;;5091402;28;20279;-65
2023/07/16 07:55:34;;;;;;;10.63;4.60;;;22.80;99.80;;;;;;5092648;28;20048;-65
2023/07/16 07:58:00;;;;;;;9.18;5.45;;;22.70;99.40;;;;;;5093071;28;20044;-65
2023/07/16 08:00:26;;;;;;;9.35;5.18;;;22.40;99.70;;;;;;5092775;28;20047;-65
2023/07/16 08:02:52;;;;;;;8.00;4.70;;;22.60;99.90;;;;;;5092913;28;20105;-65
2023/07/16 08:05:19;;;;;;;10.13;5.13;;;22.80;99.90;;;;;;5092341;28;20039;-66
2023/07/16 08:07:46;;;;;;;12.93;5.72;;;22.50;99.80;;;;;;5092523;28;20044;-65
2023/07/16 08:10:12;;;;;;;9.90;4.70;;;22.10;99.70;;;;;;5092399;28;20358;-65
2023/07/16 08:12:38;;;;;;;8.48;4.93;;;22.20;99.90;;;;;;5092922;28;20055;-65
2023/07/16 08:15:07;;;;;;;9.50;4.85;;;22.40;99.90;;;;;;5092098;28;20063;-65
2023/07/16 08:17:33;;;;;;;9.88;5.47;;;22.10;99.90;;;;;;5092509;28;20052;-65
2023/07/16 08:19:59;;;;;;;12.60;5.18;;;22.00;99.90;;;;;;5091652;28;20480;-65
2023/07/16 08:22:26;;;;;;;10.05;4.72;;;21.70;99.90;;;;;;5092556;28;20044;-65
2023/07/16 08:24:52;;;;;;;14.68;5.05;;;21.90;99.90;;;;;;5092065;28;20056;-65
2023/07/16 08:27:19;;;;;;;12.98;5.00;;;21.90;99.90;;;;;;5092407;28;20066;-65
2023/07/16 08:29:45;;;;;;;10.98;5.10;;;21.70;99.90;;;;;;5092206;28;20047;-65
2023/07/16 08:32:11;;;;;;;11.93;5.53;;;21.50;99.90;;;;;;5092471;28;20056;-65
2023/07/16 08:34:38;;;;;;;9.75;4.78;;;21.50;99.90;;;;;;5091903;28;20048;-65
2023/07/16 08:37:04;;;;;;;9.15;4.80;;;21.80;99.90;;;;;;5092086;28;20477;-64
2023/07/16 08:39:31;;;;;;;14.80;5.32;;;22.10;99.90;;;;;;5092021;28;20282;-65
2023/07/16 08:41:58;;;;;;;9.25;4.70;;;22.30;99.90;;;;;;5092336;28;20052;-65
2023/07/16 08:44:24;;;;;;;9.50;5.22;;;22.40;99.90;;;;;;5092244;28;20532;-65
2023/07/16 08:46:51;;;;;;;8.35;4.80;;;22.50;99.90;;;;;;5091414;28;20346;-65
2023/07/16 08:49:19;;;;;;;12.60;4.80;;;22.50;99.60;;;;;;5091800;28;20059;-65
2023/07/16 08:51:48;;;;;;;7.90;4.45;;;22.60;99.80;;;;;;5091682;28;20468;-65
2023/07/16 08:54:17;;;;;;;10.20;4.93;;;22.60;99.90;;;;;;5092137;28;20075;-65
2023/07/16 08:56:44;;;;;;;10.40;4.63;;;22.30;99.90;;;;;;5091223;28;20414;-65
2023/07/16 08:59:10;;;;;;;9.48;4.47;;;22.30;99.90;;;;;;5091747;28;20047;-66
2023/07/16 09:01:37;;;;;;;9.98;4.57;;;22.30;99.90;;;;;;5091921;28;20039;-65
2023/07/16 09:04:04;;;;;;;8.05;4.47;;;22.10;99.90;;;;;;5092105;28;20048;-66
2023/07/16 09:06:30;;;;;;;8.93;5.13;;;21.80;99.90;;;;;;5073988;28;20044;-65
2023/07/16 09:08:56;;;;;;;8.90;4.65;;;21.80;99.90;;;;;;5091950;28;20052;-65
2023/07/16 09:11:22;;;;;;;8.68;4.72;;;21.80;99.90;;;;;;5092139;28;20068;-65
2023/07/16 09:13:49;;;;;;;7.43;5.03;;;21.70;99.90;;;;;;5091887;28;20056;-65
2023/07/16 09:16:18;;;;;;;8.23;4.50;;;21.50;99.90;;;;;;5091566;28;20090;-65
2023/07/16 09:18:45;;;;;;;10.02;4.97;;;21.40;99.90;;;;;;5091288;28;20059;-65
2023/07/16 09:21:11;;;;;;;9.07;4.95;;;21.40;99.90;;;;;;5091628;28;20110;-65
2023/07/16 09:23:37;;;;;;;9.10;5.40;;;21.60;99.90;;;;;;5091766;28;20044;-65
2023/07/16 09:26:04;;;;;;;8.65;5.10;;;21.70;99.90;;;;;;5093740;28;20051;-65
2023/07/16 09:28:31;;;;;;;9.70;4.75;;;22.00;99.90;;;;;;5077324;28;20370;-65
2023/07/16 09:31:05;;;;;;;10.60;5.00;;;22.00;99.90;;;;;;5096040;28;20055;-65
2023/07/16 09:33:32;;;;;;;12.77;5.80;;;22.20;99.90;;;;;;5095758;28;20105;-65
2023/07/16 09:35:58;;;;;;;12.65;5.50;;;22.20;99.90;;;;;;5087880;28;20121;-65
2023/07/16 09:38:26;;;;;;;8.60;4.43;;;22.20;99.90;;;;;;5074846;28;20511;-65
2023/07/16 09:40:55;;;;;;;7.15;4.32;;;22.20;99.90;;;;;;5075158;28;20052;-65
2023/07/16 09:43:22;;;;;;;8.88;5.10;;;22.20;99.90;;;;;;5075087;28;20044;-65
2023/07/16 09:45:48;;;;;;;8.48;4.80;;;22.00;99.90;;;;;;5074634;28;20063;-65
2023/07/16 09:48:15;;;;;;;9.07;4.95;;;22.10;99.90;;;;;;5074734;28;20040;-65
2023/07/16 09:50:50;;;;;;;9.23;4.72;;;22.20;99.90;;;;;;5075171;28;20064;-66
2023/07/16 09:53:19;;;;;;;8.88;4.85;;;22.30;99.90;;;;;;5075756;28;20056;-65
2023/07/16 09:55:46;;;;;;;8.77;4.70;;;22.30;99.90;;;;;;5074505;28;20052;-65
2023/07/16 09:58:13;;;;;;;8.45;5.20;;;22.00;99.90;;;;;;5074816;28;20060;-65
2023/07/16 10:00:41;;;;;;;9.48;4.40;;;21.90;99.90;;;;;;5074732;28;20056;-65
2023/07/16 10:03:08;;;;;;;10.50;5.20;;;21.70;99.90;;;;;;5074641;28;20040;-64
2023/07/16 10:05:38;;;;;;;8.90;4.93;;;21.60;99.90;;;;;;5074343;28;20044;-65
2023/07/16 10:08:04;;;;;;;11.32;5.65;;;21.60;99.90;;;;;;5074503;28;20046;-65
2023/07/16 10:10:40;;;;;;;9.70;5.05;;;21.70;99.90;;;;;;5074752;28;20063;-65
2023/07/16 10:13:10;;;;;;;8.75;4.63;;;22.10;99.90;;;;;;5074806;28;20453;-64
2023/07/16 10:15:37;;;;;;;9.48;4.70;;;22.20;99.90;;;;;;5074122;28;20048;-65
2023/07/16 10:18:03;;;;;;;7.57;4.60;;;22.30;99.90;;;;;;5056442;28;20048;-65
2023/07/16 10:20:30;;;;;;;12.80;5.38;;;22.50;99.90;;;;;;5074790;28;20040;-65
2023/07/16 10:22:56;;;;;;;10.55;4.95;;;22.30;99.90;;;;;;5074580;28;20056;-65
2023/07/16 10:25:25;;;;;;;9.95;4.80;;;22.30;99.90;;;;;;5074177;28;20071;-65
2023/07/16 10:27:53;;;;;;;7.53;3.97;;;22.30;99.90;;;;;;5074191;28;20052;-65
2023/07/16 10:30:20;;;;;;;9.15;4.50;;;22.20;99.90;;;;;;5074347;28;20147;-64
2023/07/16 10:32:47;;;;;;;7.45;4.28;;;22.20;99.90;;;;;;5074332;28;20472;-65
2023/07/16 10:35:13;;;;;;;8.25;4.63;;;22.20;99.90;;;;;;5073873;28;20040;-66
2023/07/16 10:37:40;;;;;;;8.48;4.72;;;22.20;99.90;;;;;;5073162;28;20534;-65
2023/07/16 10:40:11;;;;;;;8.40;4.70;;;22.40;99.90;;;;;;5074103;28;20465;-64
2023/07/16 10:42:39;;;;;;;;;;;22.50;99.90;;;;;;5074789;28;20106;-66
2023/07/16 10:45:07;;;;;;;10.73;4.63;;;22.40;99.90;;;;;;5073715;28;20011;-65
2023/07/16 10:47:35;;;;;;;9.73;5.10;;;22.40;99.90;;;;;;5073929;28;20587;-66
2023/07/16 10:50:08;;;;;;;8.68;5.05;;;22.40;99.90;;;;;;5073738;28;20056;-64
2023/07/16 10:52:35;;;;;;;7.28;4.90;;;22.40;99.90;;;;;;5073960;28;20053;-65
2023/07/16 10:55:01;;;;;;;8.98;4.93;;;22.40;99.90;;;;;;5073650;28;20049;-65
2023/07/16 10:57:28;;;;;;;8.80;4.75;;;22.60;99.90;;;;;;5073857;28;20052;-65
2023/07/16 10:59:57;;;;;;;8.75;5.18;;;22.70;99.90;;;;;;5073368;28;20052;-65
2023/07/16 11:02:24;;;;;;;9.60;5.03;;;22.70;99.90;;;;;;5073298;28;20353;-65
2023/07/16 11:04:53;;;;;;;7.32;4.80;;;22.60;99.80;;;;;;5072829;28;20136;-65
2023/07/16 11:07:20;;;;;;;8.40;5.13;;;22.40;99.80;;;;;;5073793;28;20059;-64
2023/07/16 11:09:49;;;;;;;7.78;5.15;;;22.30;99.90;;;;;;5073426;28;20045;-65
2023/07/16 11:12:19;;;;;;;7.93;4.90;;;22.00;99.90;;;;;;5073643;28;20052;-65
2023/07/16 11:14:47;;;;;;;10.07;4.63;;;21.70;99.90;;;;;;5072914;28;20435;-64
2023/07/16 11:17:14;;;;;;;8.43;4.88;;;21.80;99.90;;;;;;5073533;28;20059;-64
2023/07/16 11:19:44;;;;;;;8.60;5.18;;;21.70;99.90;;;;;;5073166;28;20114;-65
2023/07/16 11:22:11;;;;;;;8.30;5.38;;;21.70;99.90;;;;;;5073406;28;20048;-65
2023/07/16 11:24:45;;;;;;;7.82;5.40;;;21.60;99.90;;;;;;5072811;28;20427;-65
2023/07/16 11:27:20;;;;;;;9.23;5.80;;;21.50;99.90;;;;;;5072989;28;20045;-64
2023/07/16 11:29:47;;;;;;;7.13;4.25;;;21.60;99.90;;;;;;5066668;28;20414;-64
2023/07/16 11:32:25;;;;;;;7.50;5.13;;;21.70;99.90;;;;;;5058083;28;20053;-64
2023/07/16 11:34:55;;;;;;;9.88;5.05;;;21.90;99.90;;;;;;5052745;28;20056;-64
2023/07/16 11:37:24;;;;;;;10.15;4.97;;;22.00;99.90;;;;;;5052764;28;20132;-64
2023/07/16 11:39:50;;;;;;;8.88;4.97;;;22.20;99.90;;;;;;5070209;28;20082;-64
2023/07/16 11:42:30;;;;;;;8.13;4.50;;;22.40;99.90;;;;;;5072973;28;20044;-64
2023/07/16 11:44:57;;;;;;;6.30;4.65;;;22.50;99.90;;;;;;5069269;28;20056;-65
2023/07/16 11:47:24;;;;;;;7.57;4.50;;;22.50;99.90;;;;;;5044451;28;20223;-64
2023/07/16 11:49:51;;;;;;;10.30;5.10;;;22.50;99.90;;;;;;5031752;28;20063;-64
2023/07/16 11:52:25;;;;;;;8.20;4.97;;;22.50;99.90;;;;;;5040751;28;20128;-64
2023/07/16 11:54:53;;;;;;;8.15;4.90;;;22.50;99.90;;;;;;5052465;28;20061;-64
2023/07/16 11:57:19;;;;;;;6.03;4.75;;;22.60;99.90;;;;;;5053924;28;20049;-64
2023/07/16 11:59:46;;;;;;;9.40;4.95;;;22.70;99.90;;;;;;5063547;28;20056;-64
2023/07/16 12:02:12;;;;;;;6.57;4.38;;;22.70;99.90;;;;;;5065186;28;20053;-64
2023/07/16 12:04:39;;;;;;;8.05;4.57;;;22.40;99.90;;;;;;5052492;28;20049;-64
2023/07/16 12:07:05;;;;;;;7.75;4.78;;;22.30;99.90;;;;;;5052847;28;20371;-64
2023/07/16 12:09:31;;;;;;;9.63;4.75;;;22.30;99.90;;;;;;5066999;28;20049;-64
2023/07/16 12:11:59;;;;;;;8.90;5.05;;;22.20;99.90;;;;;;5072282;28;20051;-64
2023/07/16 12:14:25;;;;;;;6.82;4.45;;;22.20;99.90;;;;;;5072521;28;20048;-64
2023/07/16 12:16:51;;;;;;;8.55;5.13;;;22.00;99.90;;;;;;5072611;28;20045;-64
2023/07/16 12:19:17;;;;;;;9.73;4.80;;;22.20;99.90;;;;;;5071964;28;20361;-65
2023/07/16 12:21:44;;;;;;;7.47;4.40;;;22.20;99.90;;;;;;5071960;28;20361;-64
2023/07/16 12:24:11;;;;;;;10.68;5.32;;;22.20;99.90;;;;;;5069353;28;20106;-65
2023/07/16 12:26:37;;;;;;;8.73;5.32;;;22.20;99.90;;;;;;5043124;28;20342;-65
2023/07/16 12:29:04;;;;;;;6.78;4.30;;;22.20;99.90;;;;;;5060126;28;20344;-66
2023/07/16 12:31:33;;;;;;;7.53;3.92;;;22.10;99.90;;;;;;5062866;28;20044;-65
2023/07/16 12:34:01;;;;;;;8.52;5.00;;;22.10;99.90;;;;;;5062338;28;20044;-65
2023/07/16 12:36:28;;;;;;;8.82;4.43;;;22.10;99.90;;;;;;5059858;28;20404;-65
2023/07/16 12:38:54;;;;;;;5.55;3.83;;;22.20;99.90;;;;;;5059530;28;20054;-64
2023/07/16 12:41:22;;;;;;;5.55;3.45;;;22.10;99.90;;;;;;5059752;28;20122;-65
2023/07/16 12:43:48;;;;;;;8.05;3.55;;;22.10;99.90;;;;;;5058035;28;20041;-64